ホニアラ の空港の天気 - METARとTAF

ホニアラ国際空港 ( AGGH / HIR ) - ソロモン諸島 ガダルカナル島ホニアラ
飛行場実況気象(Metar)
観測時間01/23 16:30 SBT (01/23 05:30 UTC)
風向・風速南 3m/s
視程10km以上
天気現象
全天の4割程度の雲 雲底高度 520m
全天の4割程度の雲 雲底高度 610m
気温26℃
湿度89%
気圧1004hPa
METARAGGH 230530Z 18006KT 9999 TS SCT017 SCT020CB 26/24 Q1004
過去の天気等 Google飛行場航空写真 Wunderground天気予報

過去48時間のMETAR

飛行場予報(TAF)
発表時間: 1/23 16:20 SBT (1/23 05:20 UTC)
予報対象時間: 23日17時 SBT ~ 24日17時 SBT
風向・風速東南東 5m/s
視程10km以上
天気現象弱いしゅう雨
少しの雲 雲底高度 520m
全天の4割程度の雲 雲底高度 850m
全天の8割程度の雲 雲底高度 3,050m
23日23時 SBT から
風向・風速不定 2m/s
視程10km以上
天気現象弱いしゅう雨
少しの雲 雲底高度 520m
全天の8割程度の雲 雲底高度 3,050m
TAF AGGH 230520Z 2306/2406 11010KT 9999 -SHRA FEW017 SCT028 BKN100
FM231200 VRB03KT 9999 -SHRA FEW017 BKN100 INTER 2306/2310 5000 TSSH SCT016 FEW017CB BKN027 T 28 26 25 24 Q 1003 1005 1006 1004